sensor_id;sensor_type;location;lat;lon;timestamp;P1;durP1;ratioP1;P2;durP2;ratioP2
51594;SDS011;37677;53.254;6.594;2024-03-25T00:02:02;17.48;;;4.68;;
51594;SDS011;37677;53.254;6.594;2024-03-25T00:04:28;19.45;;;4.05;;
51594;SDS011;37677;53.254;6.594;2024-03-25T00:06:54;17.25;;;3.75;;
51594;SDS011;37677;53.254;6.594;2024-03-25T00:09:22;16.65;;;3.85;;
51594;SDS011;37677;53.254;6.594;2024-03-25T00:11:48;14.70;;;4.07;;
51594;SDS011;37677;53.254;6.594;2024-03-25T00:14:14;14.57;;;3.67;;
51594;SDS011;37677;53.254;6.594;2024-03-25T00:16:40;19.10;;;4.45;;
51594;SDS011;37677;53.254;6.594;2024-03-25T00:19:06;17.40;;;4.60;;
51594;SDS011;37677;53.254;6.594;2024-03-25T00:21:32;19.98;;;4.13;;
51594;SDS011;37677;53.254;6.594;2024-03-25T00:24:01;17.70;;;4.63;;
51594;SDS011;37677;53.254;6.594;2024-03-25T00:26:27;23.02;;;3.97;;
51594;SDS011;37677;53.254;6.594;2024-03-25T00:28:53;15.05;;;3.75;;
51594;SDS011;37677;53.254;6.594;2024-03-25T00:31:19;15.30;;;3.88;;
51594;SDS011;37677;53.254;6.594;2024-03-25T00:33:46;16.90;;;3.95;;
51594;SDS011;37677;53.254;6.594;2024-03-25T00:36:12;18.80;;;4.07;;
51594;SDS011;37677;53.254;6.594;2024-03-25T00:38:38;18.60;;;4.47;;
51594;SDS011;37677;53.254;6.594;2024-03-25T00:41:04;21.13;;;4.13;;
51594;SDS011;37677;53.254;6.594;2024-03-25T00:43:30;15.35;;;4.05;;
51594;SDS011;37677;53.254;6.594;2024-03-25T00:45:56;18.83;;;4.00;;
51594;SDS011;37677;53.254;6.594;2024-03-25T00:48:22;19.00;;;4.70;;
51594;SDS011;37677;53.254;6.594;2024-03-25T00:50:48;21.00;;;4.93;;
51594;SDS011;37677;53.254;6.594;2024-03-25T00:53:14;23.48;;;4.40;;
51594;SDS011;37677;53.254;6.594;2024-03-25T00:55:40;16.60;;;4.75;;
51594;SDS011;37677;53.254;6.594;2024-03-25T00:58:07;16.55;;;4.30;;
51594;SDS011;37677;53.254;6.594;2024-03-25T01:00:33;17.40;;;4.93;;
51594;SDS011;37677;53.254;6.594;2024-03-25T01:02:59;14.73;;;4.25;;
51594;SDS011;37677;53.254;6.594;2024-03-25T01:05:25;19.70;;;4.60;;
51594;SDS011;37677;53.254;6.594;2024-03-25T01:07:51;16.25;;;4.32;;
51594;SDS011;37677;53.254;6.594;2024-03-25T01:10:17;20.92;;;4.18;;
51594;SDS011;37677;53.254;6.594;2024-03-25T01:12:43;16.10;;;3.90;;
51594;SDS011;37677;53.254;6.594;2024-03-25T01:15:10;17.83;;;3.92;;
51594;SDS011;37677;53.254;6.594;2024-03-25T01:17:36;13.57;;;3.80;;
51594;SDS011;37677;53.254;6.594;2024-03-25T01:20:03;18.63;;;3.75;;
51594;SDS011;37677;53.254;6.594;2024-03-25T01:22:34;13.65;;;3.30;;
51594;SDS011;37677;53.254;6.594;2024-03-25T01:25:00;13.73;;;3.42;;
51594;SDS011;37677;53.254;6.594;2024-03-25T01:27:29;9.30;;;3.15;;
51594;SDS011;37677;53.254;6.594;2024-03-25T01:29:55;8.90;;;2.80;;
51594;SDS011;37677;53.254;6.594;2024-03-25T01:32:21;16.05;;;4.03;;
51594;SDS011;37677;53.254;6.594;2024-03-25T01:34:47;7.22;;;2.40;;
51594;SDS011;37677;53.254;6.594;2024-03-25T01:37:13;14.15;;;3.72;;
51594;SDS011;37677;53.254;6.594;2024-03-25T01:39:39;14.70;;;3.25;;
51594;SDS011;37677;53.254;6.594;2024-03-25T01:42:06;10.02;;;2.75;;
51594;SDS011;37677;53.254;6.594;2024-03-25T01:44:32;11.30;;;3.10;;
51594;SDS011;37677;53.254;6.594;2024-03-25T01:46:58;15.68;;;3.63;;
51594;SDS011;37677;53.254;6.594;2024-03-25T01:49:24;12.07;;;3.35;;
51594;SDS011;37677;53.254;6.594;2024-03-25T01:51:50;18.88;;;3.38;;
51594;SDS011;37677;53.254;6.594;2024-03-25T01:54:16;15.60;;;3.30;;
51594;SDS011;37677;53.254;6.594;2024-03-25T01:56:44;11.75;;;3.40;;
51594;SDS011;37677;53.254;6.594;2024-03-25T01:59:12;19.23;;;3.90;;
51594;SDS011;37677;53.254;6.594;2024-03-25T02:01:38;13.65;;;3.35;;
51594;SDS011;37677;53.254;6.594;2024-03-25T02:04:04;10.38;;;3.03;;
51594;SDS011;37677;53.254;6.594;2024-03-25T02:06:32;13.70;;;3.10;;
51594;SDS011;37677;53.254;6.594;2024-03-25T02:08:58;11.05;;;3.10;;
51594;SDS011;37677;53.254;6.594;2024-03-25T02:11:25;11.23;;;4.05;;
51594;SDS011;37677;53.254;6.594;2024-03-25T02:13:56;12.57;;;4.22;;
51594;SDS011;37677;53.254;6.594;2024-03-25T02:16:24;15.27;;;3.60;;
51594;SDS011;37677;53.254;6.594;2024-03-25T02:18:50;10.20;;;2.92;;
51594;SDS011;37677;53.254;6.594;2024-03-25T02:21:17;12.95;;;3.35;;
51594;SDS011;37677;53.254;6.594;2024-03-25T02:23:44;21.58;;;3.97;;
51594;SDS011;37677;53.254;6.594;2024-03-25T02:26:10;13.68;;;3.35;;
51594;SDS011;37677;53.254;6.594;2024-03-25T02:28:37;16.10;;;3.60;;
51594;SDS011;37677;53.254;6.594;2024-03-25T02:31:03;17.83;;;3.97;;
51594;SDS011;37677;53.254;6.594;2024-03-25T02:33:35;15.35;;;3.67;;
51594;SDS011;37677;53.254;6.594;2024-03-25T02:36:04;13.63;;;3.60;;
51594;SDS011;37677;53.254;6.594;2024-03-25T02:38:30;13.27;;;4.20;;
51594;SDS011;37677;53.254;6.594;2024-03-25T02:40:57;17.77;;;3.10;;
51594;SDS011;37677;53.254;6.594;2024-03-25T02:43:25;18.25;;;3.70;;
51594;SDS011;37677;53.254;6.594;2024-03-25T02:45:54;13.13;;;3.38;;
51594;SDS011;37677;53.254;6.594;2024-03-25T02:48:22;8.98;;;2.80;;
51594;SDS011;37677;53.254;6.594;2024-03-25T02:50:55;10.93;;;3.20;;
51594;SDS011;37677;53.254;6.594;2024-03-25T02:53:21;15.40;;;3.22;;
51594;SDS011;37677;53.254;6.594;2024-03-25T02:55:47;18.92;;;4.28;;
51594;SDS011;37677;53.254;6.594;2024-03-25T02:58:14;17.25;;;3.70;;
51594;SDS011;37677;53.254;6.594;2024-03-25T03:00:40;11.98;;;3.13;;
51594;SDS011;37677;53.254;6.594;2024-03-25T03:03:07;15.43;;;2.92;;
51594;SDS011;37677;53.254;6.594;2024-03-25T03:05:34;10.23;;;3.05;;
51594;SDS011;37677;53.254;6.594;2024-03-25T03:08:01;20.80;;;3.60;;
51594;SDS011;37677;53.254;6.594;2024-03-25T03:10:27;13.68;;;3.10;;
51594;SDS011;37677;53.254;6.594;2024-03-25T03:12:53;13.65;;;3.03;;
51594;SDS011;37677;53.254;6.594;2024-03-25T03:17:49;15.27;;;3.15;;
51594;SDS011;37677;53.254;6.594;2024-03-25T03:20:16;12.60;;;3.58;;
51594;SDS011;37677;53.254;6.594;2024-03-25T03:22:42;11.23;;;2.47;;
51594;SDS011;37677;53.254;6.594;2024-03-25T03:25:08;12.82;;;3.13;;
51594;SDS011;37677;53.254;6.594;2024-03-25T03:27:34;12.98;;;3.35;;
51594;SDS011;37677;53.254;6.594;2024-03-25T03:32:31;14.60;;;3.30;;
51594;SDS011;37677;53.254;6.594;2024-03-25T03:34:56;10.25;;;2.60;;
51594;SDS011;37677;53.254;6.594;2024-03-25T03:37:24;9.82;;;3.03;;
51594;SDS011;37677;53.254;6.594;2024-03-25T03:39:50;8.27;;;2.80;;
51594;SDS011;37677;53.254;6.594;2024-03-25T03:42:16;13.23;;;2.88;;
51594;SDS011;37677;53.254;6.594;2024-03-25T03:44:42;12.32;;;3.08;;
51594;SDS011;37677;53.254;6.594;2024-03-25T03:47:08;12.13;;;2.65;;
51594;SDS011;37677;53.254;6.594;2024-03-25T03:49:34;15.55;;;3.35;;
51594;SDS011;37677;53.254;6.594;2024-03-25T03:52:00;18.60;;;3.95;;
51594;SDS011;37677;53.254;6.594;2024-03-25T03:54:35;9.07;;;3.13;;
51594;SDS011;37677;53.254;6.594;2024-03-25T03:57:01;13.98;;;3.28;;
51594;SDS011;37677;53.254;6.594;2024-03-25T03:59:33;18.63;;;3.30;;
51594;SDS011;37677;53.254;6.594;2024-03-25T04:01:59;15.00;;;3.08;;
51594;SDS011;37677;53.254;6.594;2024-03-25T04:04:25;6.65;;;2.38;;
51594;SDS011;37677;53.254;6.594;2024-03-25T04:06:52;12.25;;;2.88;;
51594;SDS011;37677;53.254;6.594;2024-03-25T04:09:18;11.52;;;3.03;;
51594;SDS011;37677;53.254;6.594;2024-03-25T04:11:46;13.23;;;3.22;;
51594;SDS011;37677;53.254;6.594;2024-03-25T04:14:15;10.43;;;3.08;;
51594;SDS011;37677;53.254;6.594;2024-03-25T04:16:41;14.13;;;2.95;;
51594;SDS011;37677;53.254;6.594;2024-03-25T04:19:07;11.18;;;3.00;;
51594;SDS011;37677;53.254;6.594;2024-03-25T04:21:33;11.25;;;3.08;;
51594;SDS011;37677;53.254;6.594;2024-03-25T04:23:59;11.57;;;2.90;;
51594;SDS011;37677;53.254;6.594;2024-03-25T04:29:15;9.50;;;2.63;;
51594;SDS011;37677;53.254;6.594;2024-03-25T04:31:41;12.07;;;3.33;;
51594;SDS011;37677;53.254;6.594;2024-03-25T04:34:07;10.05;;;2.72;;
51594;SDS011;37677;53.254;6.594;2024-03-25T04:36:34;14.18;;;3.13;;
51594;SDS011;37677;53.254;6.594;2024-03-25T04:39:00;11.10;;;3.10;;
51594;SDS011;37677;53.254;6.594;2024-03-25T04:41:34;9.63;;;3.13;;
51594;SDS011;37677;53.254;6.594;2024-03-25T04:44:00;10.13;;;2.58;;
51594;SDS011;37677;53.254;6.594;2024-03-25T04:46:34;11.73;;;2.72;;
51594;SDS011;37677;53.254;6.594;2024-03-25T04:49:00;14.25;;;2.72;;
51594;SDS011;37677;53.254;6.594;2024-03-25T04:51:27;12.90;;;3.00;;
51594;SDS011;37677;53.254;6.594;2024-03-25T04:53:54;12.27;;;3.10;;
51594;SDS011;37677;53.254;6.594;2024-03-25T04:56:20;17.60;;;3.38;;
51594;SDS011;37677;53.254;6.594;2024-03-25T04:59:14;17.27;;;3.50;;
51594;SDS011;37677;53.254;6.594;2024-03-25T05:01:46;15.10;;;3.53;;
51594;SDS011;37677;53.254;6.594;2024-03-25T05:04:12;15.25;;;3.35;;
51594;SDS011;37677;53.254;6.594;2024-03-25T05:06:39;12.23;;;3.13;;
51594;SDS011;37677;53.254;6.594;2024-03-25T05:09:06;13.77;;;3.28;;
51594;SDS011;37677;53.254;6.594;2024-03-25T05:11:42;11.43;;;3.28;;
51594;SDS011;37677;53.254;6.594;2024-03-25T05:14:17;17.30;;;4.13;;
51594;SDS011;37677;53.254;6.594;2024-03-25T05:19:21;16.73;;;3.80;;
51594;SDS011;37677;53.254;6.594;2024-03-25T05:21:48;11.15;;;3.08;;
51594;SDS011;37677;53.254;6.594;2024-03-25T05:24:14;17.58;;;3.35;;
51594;SDS011;37677;53.254;6.594;2024-03-25T05:26:42;15.38;;;4.32;;
51594;SDS011;37677;53.254;6.594;2024-03-25T05:29:13;14.07;;;3.78;;
51594;SDS011;37677;53.254;6.594;2024-03-25T05:31:39;15.48;;;3.72;;
51594;SDS011;37677;53.254;6.594;2024-03-25T05:34:20;15.60;;;3.30;;
51594;SDS011;37677;53.254;6.594;2024-03-25T05:36:51;16.90;;;3.45;;
51594;SDS011;37677;53.254;6.594;2024-03-25T05:39:17;18.20;;;3.58;;
51594;SDS011;37677;53.254;6.594;2024-03-25T05:41:44;17.38;;;3.58;;
51594;SDS011;37677;53.254;6.594;2024-03-25T05:44:19;17.67;;;3.72;;
51594;SDS011;37677;53.254;6.594;2024-03-25T05:46:45;16.25;;;3.58;;
51594;SDS011;37677;53.254;6.594;2024-03-25T05:49:17;12.57;;;3.28;;
51594;SDS011;37677;53.254;6.594;2024-03-25T05:51:44;15.88;;;3.65;;
51594;SDS011;37677;53.254;6.594;2024-03-25T05:54:10;16.50;;;4.05;;
51594;SDS011;37677;53.254;6.594;2024-03-25T05:56:36;14.85;;;4.50;;
51594;SDS011;37677;53.254;6.594;2024-03-25T05:59:09;13.73;;;3.80;;
51594;SDS011;37677;53.254;6.594;2024-03-25T06:01:37;13.70;;;3.42;;
51594;SDS011;37677;53.254;6.594;2024-03-25T06:04:04;19.05;;;4.57;;
51594;SDS011;37677;53.254;6.594;2024-03-25T06:06:30;11.02;;;3.45;;
51594;SDS011;37677;53.254;6.594;2024-03-25T06:08:57;16.40;;;3.55;;
51594;SDS011;37677;53.254;6.594;2024-03-25T06:11:23;17.70;;;4.05;;
51594;SDS011;37677;53.254;6.594;2024-03-25T06:13:55;13.65;;;3.38;;
51594;SDS011;37677;53.254;6.594;2024-03-25T06:16:21;13.95;;;3.63;;
51594;SDS011;37677;53.254;6.594;2024-03-25T06:18:47;13.20;;;3.13;;
51594;SDS011;37677;53.254;6.594;2024-03-25T06:21:16;19.15;;;4.07;;
51594;SDS011;37677;53.254;6.594;2024-03-25T06:23:42;16.60;;;4.38;;
51594;SDS011;37677;53.254;6.594;2024-03-25T06:26:08;18.33;;;3.67;;
51594;SDS011;37677;53.254;6.594;2024-03-25T06:28:34;14.57;;;3.17;;
51594;SDS011;37677;53.254;6.594;2024-03-25T06:31:00;13.40;;;3.55;;
51594;SDS011;37677;53.254;6.594;2024-03-25T06:33:45;12.60;;;3.40;;
51594;SDS011;37677;53.254;6.594;2024-03-25T06:36:41;10.65;;;3.25;;
51594;SDS011;37677;53.254;6.594;2024-03-25T06:39:07;10.77;;;2.90;;
51594;SDS011;37677;53.254;6.594;2024-03-25T06:41:33;15.95;;;3.55;;
51594;SDS011;37677;53.254;6.594;2024-03-25T06:44:02;13.30;;;3.30;;
51594;SDS011;37677;53.254;6.594;2024-03-25T06:46:28;10.50;;;3.17;;
51594;SDS011;37677;53.254;6.594;2024-03-25T06:48:55;11.32;;;3.50;;
51594;SDS011;37677;53.254;6.594;2024-03-25T06:51:25;16.50;;;3.33;;
51594;SDS011;37677;53.254;6.594;2024-03-25T06:56:31;12.93;;;3.45;;
51594;SDS011;37677;53.254;6.594;2024-03-25T06:58:57;15.00;;;3.50;;
51594;SDS011;37677;53.254;6.594;2024-03-25T07:01:25;11.00;;;3.58;;
51594;SDS011;37677;53.254;6.594;2024-03-25T07:03:51;9.10;;;3.00;;
51594;SDS011;37677;53.254;6.594;2024-03-25T07:06:21;12.35;;;2.95;;
51594;SDS011;37677;53.254;6.594;2024-03-25T07:08:48;12.38;;;3.10;;
51594;SDS011;37677;53.254;6.594;2024-03-25T07:11:15;8.52;;;2.78;;
51594;SDS011;37677;53.254;6.594;2024-03-25T07:13:41;17.38;;;3.92;;
51594;SDS011;37677;53.254;6.594;2024-03-25T07:16:07;10.98;;;2.70;;
51594;SDS011;37677;53.254;6.594;2024-03-25T07:18:33;15.82;;;3.53;;
51594;SDS011;37677;53.254;6.594;2024-03-25T07:20:59;12.15;;;3.88;;
51594;SDS011;37677;53.254;6.594;2024-03-25T07:23:25;12.82;;;2.85;;
51594;SDS011;37677;53.254;6.594;2024-03-25T07:25:53;13.77;;;3.75;;
51594;SDS011;37677;53.254;6.594;2024-03-25T07:28:20;11.45;;;2.88;;
51594;SDS011;37677;53.254;6.594;2024-03-25T07:30:52;11.32;;;3.08;;
51594;SDS011;37677;53.254;6.594;2024-03-25T07:33:18;12.40;;;2.53;;
51594;SDS011;37677;53.254;6.594;2024-03-25T07:35:45;10.80;;;2.60;;
51594;SDS011;37677;53.254;6.594;2024-03-25T07:38:11;9.55;;;2.53;;
51594;SDS011;37677;53.254;6.594;2024-03-25T07:40:37;16.15;;;3.13;;
51594;SDS011;37677;53.254;6.594;2024-03-25T07:43:03;12.88;;;2.80;;
51594;SDS011;37677;53.254;6.594;2024-03-25T07:45:35;7.30;;;2.50;;
51594;SDS011;37677;53.254;6.594;2024-03-25T07:48:01;11.27;;;3.33;;
51594;SDS011;37677;53.254;6.594;2024-03-25T07:50:29;12.90;;;3.53;;
51594;SDS011;37677;53.254;6.594;2024-03-25T07:52:55;17.38;;;3.45;;
51594;SDS011;37677;53.254;6.594;2024-03-25T07:55:21;18.80;;;3.47;;
51594;SDS011;37677;53.254;6.594;2024-03-25T07:57:47;13.18;;;2.97;;
51594;SDS011;37677;53.254;6.594;2024-03-25T08:00:13;10.45;;;3.70;;
51594;SDS011;37677;53.254;6.594;2024-03-25T08:02:39;9.23;;;3.08;;
51594;SDS011;37677;53.254;6.594;2024-03-25T08:05:05;10.90;;;2.88;;
51594;SDS011;37677;53.254;6.594;2024-03-25T08:10:01;11.20;;;2.70;;
51594;SDS011;37677;53.254;6.594;2024-03-25T08:12:34;7.93;;;2.45;;
51594;SDS011;37677;53.254;6.594;2024-03-25T08:15:00;9.85;;;2.50;;
51594;SDS011;37677;53.254;6.594;2024-03-25T08:17:26;9.52;;;2.28;;
51594;SDS011;37677;53.254;6.594;2024-03-25T08:19:53;8.00;;;2.50;;
51594;SDS011;37677;53.254;6.594;2024-03-25T08:22:19;8.15;;;2.30;;
51594;SDS011;37677;53.254;6.594;2024-03-25T08:24:45;7.15;;;2.15;;
51594;SDS011;37677;53.254;6.594;2024-03-25T08:27:14;8.15;;;2.10;;
51594;SDS011;37677;53.254;6.594;2024-03-25T08:29:40;5.95;;;2.33;;
51594;SDS011;37677;53.254;6.594;2024-03-25T08:32:07;10.45;;;2.25;;
51594;SDS011;37677;53.254;6.594;2024-03-25T08:34:33;7.57;;;1.85;;
51594;SDS011;37677;53.254;6.594;2024-03-25T08:37:02;10.68;;;2.50;;
51594;SDS011;37677;53.254;6.594;2024-03-25T08:39:34;7.85;;;2.78;;
51594;SDS011;37677;53.254;6.594;2024-03-25T08:44:32;11.20;;;2.88;;
51594;SDS011;37677;53.254;6.594;2024-03-25T08:47:04;10.90;;;2.38;;
51594;SDS011;37677;53.254;6.594;2024-03-25T08:49:30;7.47;;;2.42;;
51594;SDS011;37677;53.254;6.594;2024-03-25T08:51:59;8.13;;;2.22;;
51594;SDS011;37677;53.254;6.594;2024-03-25T08:54:26;10.25;;;2.03;;
51594;SDS011;37677;53.254;6.594;2024-03-25T08:56:53;10.68;;;2.35;;
51594;SDS011;37677;53.254;6.594;2024-03-25T09:02:11;9.88;;;2.60;;
51594;SDS011;37677;53.254;6.594;2024-03-25T09:04:44;13.07;;;2.30;;
51594;SDS011;37677;53.254;6.594;2024-03-25T09:07:24;8.60;;;1.92;;
51594;SDS011;37677;53.254;6.594;2024-03-25T09:09:50;8.23;;;1.77;;
51594;SDS011;37677;53.254;6.594;2024-03-25T09:12:36;6.15;;;1.95;;
51594;SDS011;37677;53.254;6.594;2024-03-25T09:15:02;6.97;;;2.05;;
51594;SDS011;37677;53.254;6.594;2024-03-25T09:17:28;4.78;;;1.60;;
51594;SDS011;37677;53.254;6.594;2024-03-25T09:19:59;7.60;;;2.28;;
51594;SDS011;37677;53.254;6.594;2024-03-25T09:22:26;7.72;;;2.22;;
51594;SDS011;37677;53.254;6.594;2024-03-25T09:24:52;9.45;;;2.13;;
51594;SDS011;37677;53.254;6.594;2024-03-25T09:27:18;6.63;;;1.90;;
51594;SDS011;37677;53.254;6.594;2024-03-25T09:29:46;7.05;;;1.85;;
51594;SDS011;37677;53.254;6.594;2024-03-25T09:32:12;5.47;;;2.03;;
51594;SDS011;37677;53.254;6.594;2024-03-25T09:35:02;11.25;;;2.40;;
51594;SDS011;37677;53.254;6.594;2024-03-25T09:38:08;8.57;;;2.13;;
51594;SDS011;37677;53.254;6.594;2024-03-25T09:40:39;5.88;;;1.88;;
51594;SDS011;37677;53.254;6.594;2024-03-25T09:43:10;5.35;;;1.80;;
51594;SDS011;37677;53.254;6.594;2024-03-25T09:45:40;8.30;;;2.05;;
51594;SDS011;37677;53.254;6.594;2024-03-25T09:48:10;5.05;;;1.85;;
51594;SDS011;37677;53.254;6.594;2024-03-25T09:50:39;10.85;;;2.30;;
51594;SDS011;37677;53.254;6.594;2024-03-25T09:53:08;6.32;;;1.88;;
51594;SDS011;37677;53.254;6.594;2024-03-25T09:55:46;5.97;;;1.98;;
51594;SDS011;37677;53.254;6.594;2024-03-25T09:58:14;7.32;;;2.20;;
51594;SDS011;37677;53.254;6.594;2024-03-25T10:00:44;4.90;;;2.20;;
51594;SDS011;37677;53.254;6.594;2024-03-25T10:03:11;7.32;;;2.20;;
51594;SDS011;37677;53.254;6.594;2024-03-25T10:05:39;8.25;;;2.30;;
51594;SDS011;37677;53.254;6.594;2024-03-25T10:08:11;8.95;;;2.28;;
51594;SDS011;37677;53.254;6.594;2024-03-25T10:10:37;7.63;;;2.25;;
51594;SDS011;37677;53.254;6.594;2024-03-25T10:13:03;5.57;;;2.20;;
51594;SDS011;37677;53.254;6.594;2024-03-25T10:15:32;7.60;;;2.40;;
51594;SDS011;37677;53.254;6.594;2024-03-25T10:18:01;7.88;;;2.75;;
51594;SDS011;37677;53.254;6.594;2024-03-25T10:20:35;6.82;;;2.03;;
51594;SDS011;37677;53.254;6.594;2024-03-25T10:23:03;6.47;;;2.90;;
51594;SDS011;37677;53.254;6.594;2024-03-25T10:25:34;7.45;;;2.40;;
51594;SDS011;37677;53.254;6.594;2024-03-25T10:30:33;6.97;;;1.90;;
51594;SDS011;37677;53.254;6.594;2024-03-25T10:33:06;7.75;;;2.05;;
51594;SDS011;37677;53.254;6.594;2024-03-25T10:35:41;10.07;;;1.85;;
51594;SDS011;37677;53.254;6.594;2024-03-25T10:38:15;7.10;;;2.05;;
51594;SDS011;37677;53.254;6.594;2024-03-25T10:40:45;6.68;;;2.17;;
51594;SDS011;37677;53.254;6.594;2024-03-25T10:43:20;6.95;;;2.15;;
51594;SDS011;37677;53.254;6.594;2024-03-25T10:45:49;6.63;;;2.38;;
51594;SDS011;37677;53.254;6.594;2024-03-25T10:48:41;5.63;;;2.03;;
51594;SDS011;37677;53.254;6.594;2024-03-25T10:51:15;6.03;;;1.83;;
51594;SDS011;37677;53.254;6.594;2024-03-25T10:53:54;9.23;;;2.38;;
51594;SDS011;37677;53.254;6.594;2024-03-25T10:56:31;9.55;;;2.50;;
51594;SDS011;37677;53.254;6.594;2024-03-25T10:59:03;8.38;;;2.10;;
51594;SDS011;37677;53.254;6.594;2024-03-25T11:01:34;12.13;;;2.95;;
51594;SDS011;37677;53.254;6.594;2024-03-25T11:04:00;8.07;;;2.47;;
51594;SDS011;37677;53.254;6.594;2024-03-25T11:06:45;7.07;;;2.47;;
51594;SDS011;37677;53.254;6.594;2024-03-25T11:09:23;8.50;;;2.30;;
51594;SDS011;37677;53.254;6.594;2024-03-25T11:15:14;8.30;;;2.45;;
51594;SDS011;37677;53.254;6.594;2024-03-25T11:23:25;7.97;;;2.70;;
51594;SDS011;37677;53.254;6.594;2024-03-25T11:25:56;8.63;;;2.63;;
51594;SDS011;37677;53.254;6.594;2024-03-25T11:28:28;8.98;;;3.03;;
51594;SDS011;37677;53.254;6.594;2024-03-25T11:34:04;7.03;;;2.13;;
51594;SDS011;37677;53.254;6.594;2024-03-25T11:36:35;6.90;;;2.13;;
51594;SDS011;37677;53.254;6.594;2024-03-25T11:39:14;7.60;;;2.50;;
51594;SDS011;37677;53.254;6.594;2024-03-25T11:41:49;6.23;;;2.00;;
51594;SDS011;37677;53.254;6.594;2024-03-25T11:44:17;11.70;;;3.00;;
51594;SDS011;37677;53.254;6.594;2024-03-25T11:46:43;6.70;;;2.75;;
51594;SDS011;37677;53.254;6.594;2024-03-25T11:49:12;7.18;;;2.80;;
51594;SDS011;37677;53.254;6.594;2024-03-25T11:51:44;9.82;;;2.83;;
51594;SDS011;37677;53.254;6.594;2024-03-25T11:54:11;9.38;;;2.63;;
51594;SDS011;37677;53.254;6.594;2024-03-25T11:56:45;6.93;;;2.22;;
51594;SDS011;37677;53.254;6.594;2024-03-25T11:59:11;10.93;;;2.75;;
51594;SDS011;37677;53.254;6.594;2024-03-25T12:01:51;10.82;;;2.70;;
51594;SDS011;37677;53.254;6.594;2024-03-25T12:04:41;7.90;;;2.35;;
51594;SDS011;37677;53.254;6.594;2024-03-25T12:07:20;8.35;;;2.40;;
51594;SDS011;37677;53.254;6.594;2024-03-25T12:09:47;7.10;;;2.25;;
51594;SDS011;37677;53.254;6.594;2024-03-25T12:12:33;11.30;;;3.03;;
51594;SDS011;37677;53.254;6.594;2024-03-25T12:15:05;6.00;;;2.00;;
51594;SDS011;37677;53.254;6.594;2024-03-25T12:17:32;7.70;;;2.40;;
51594;SDS011;37677;53.254;6.594;2024-03-25T12:20:08;9.80;;;2.60;;
51594;SDS011;37677;53.254;6.594;2024-03-25T12:22:41;8.80;;;2.40;;
51594;SDS011;37677;53.254;6.594;2024-03-25T12:25:07;7.63;;;2.03;;
51594;SDS011;37677;53.254;6.594;2024-03-25T12:27:36;9.55;;;2.60;;
51594;SDS011;37677;53.254;6.594;2024-03-25T12:30:11;8.40;;;2.63;;
51594;SDS011;37677;53.254;6.594;2024-03-25T12:32:47;10.43;;;2.90;;
51594;SDS011;37677;53.254;6.594;2024-03-25T12:35:19;10.88;;;2.97;;
51594;SDS011;37677;53.254;6.594;2024-03-25T12:37:46;11.65;;;2.47;;
51594;SDS011;37677;53.254;6.594;2024-03-25T12:40:25;8.25;;;2.80;;
51594;SDS011;37677;53.254;6.594;2024-03-25T12:42:56;7.38;;;2.35;;
51594;SDS011;37677;53.254;6.594;2024-03-25T12:45:22;8.25;;;2.70;;
51594;SDS011;37677;53.254;6.594;2024-03-25T12:47:50;8.48;;;2.75;;
51594;SDS011;37677;53.254;6.594;2024-03-25T12:50:18;8.48;;;2.83;;
51594;SDS011;37677;53.254;6.594;2024-03-25T12:52:51;12.63;;;3.42;;
51594;SDS011;37677;53.254;6.594;2024-03-25T12:55:17;10.32;;;2.95;;
51594;SDS011;37677;53.254;6.594;2024-03-25T12:57:43;13.68;;;3.35;;
51594;SDS011;37677;53.254;6.594;2024-03-25T13:00:10;11.20;;;2.72;;
51594;SDS011;37677;53.254;6.594;2024-03-25T13:02:36;18.75;;;3.70;;
51594;SDS011;37677;53.254;6.594;2024-03-25T13:05:04;8.48;;;2.55;;
51594;SDS011;37677;53.254;6.594;2024-03-25T13:07:33;7.38;;;2.60;;
51594;SDS011;37677;53.254;6.594;2024-03-25T13:16:59;5.65;;;1.85;;
51594;SDS011;37677;53.254;6.594;2024-03-25T13:19:34;7.13;;;2.15;;
51594;SDS011;37677;53.254;6.594;2024-03-25T13:22:08;7.15;;;2.47;;
51594;SDS011;37677;53.254;6.594;2024-03-25T13:24:44;8.52;;;2.58;;
51594;SDS011;37677;53.254;6.594;2024-03-25T13:27:14;6.75;;;2.40;;
51594;SDS011;37677;53.254;6.594;2024-03-25T13:29:44;10.00;;;3.00;;
51594;SDS011;37677;53.254;6.594;2024-03-25T13:32:13;7.22;;;2.53;;
51594;SDS011;37677;53.254;6.594;2024-03-25T13:34:39;9.07;;;2.60;;
51594;SDS011;37677;53.254;6.594;2024-03-25T13:37:14;7.65;;;2.75;;
51594;SDS011;37677;53.254;6.594;2024-03-25T13:39:40;7.53;;;2.40;;
51594;SDS011;37677;53.254;6.594;2024-03-25T13:42:14;10.60;;;2.33;;
51594;SDS011;37677;53.254;6.594;2024-03-25T13:44:42;8.25;;;2.60;;
51594;SDS011;37677;53.254;6.594;2024-03-25T13:47:09;9.63;;;2.90;;
51594;SDS011;37677;53.254;6.594;2024-03-25T13:49:44;8.60;;;2.40;;
51594;SDS011;37677;53.254;6.594;2024-03-25T13:55:50;7.80;;;2.33;;
51594;SDS011;37677;53.254;6.594;2024-03-25T13:58:16;8.15;;;2.38;;
51594;SDS011;37677;53.254;6.594;2024-03-25T14:00:42;11.30;;;3.03;;
51594;SDS011;37677;53.254;6.594;2024-03-25T14:03:14;6.47;;;2.38;;
51594;SDS011;37677;53.254;6.594;2024-03-25T14:05:50;10.65;;;3.42;;
51594;SDS011;37677;53.254;6.594;2024-03-25T14:08:18;8.98;;;2.83;;
51594;SDS011;37677;53.254;6.594;2024-03-25T14:10:56;11.35;;;2.65;;
51594;SDS011;37677;53.254;6.594;2024-03-25T14:13:26;9.38;;;3.20;;
51594;SDS011;37677;53.254;6.594;2024-03-25T14:16:01;9.27;;;2.72;;
51594;SDS011;37677;53.254;6.594;2024-03-25T14:18:48;8.75;;;2.53;;
51594;SDS011;37677;53.254;6.594;2024-03-25T14:21:18;8.45;;;2.47;;
51594;SDS011;37677;53.254;6.594;2024-03-25T14:23:47;11.98;;;2.45;;
51594;SDS011;37677;53.254;6.594;2024-03-25T14:26:25;10.57;;;3.28;;
51594;SDS011;37677;53.254;6.594;2024-03-25T14:28:56;8.80;;;3.08;;
51594;SDS011;37677;53.254;6.594;2024-03-25T14:31:25;10.48;;;3.03;;
51594;SDS011;37677;53.254;6.594;2024-03-25T14:33:51;9.30;;;2.70;;
51594;SDS011;37677;53.254;6.594;2024-03-25T14:36:20;6.80;;;2.25;;
51594;SDS011;37677;53.254;6.594;2024-03-25T14:38:48;11.35;;;3.40;;
51594;SDS011;37677;53.254;6.594;2024-03-25T14:41:21;6.82;;;2.53;;
51594;SDS011;37677;53.254;6.594;2024-03-25T14:43:47;8.38;;;2.90;;
51594;SDS011;37677;53.254;6.594;2024-03-25T14:46:14;7.68;;;2.45;;
51594;SDS011;37677;53.254;6.594;2024-03-25T14:48:40;9.85;;;2.90;;
51594;SDS011;37677;53.254;6.594;2024-03-25T14:51:06;11.77;;;3.13;;
51594;SDS011;37677;53.254;6.594;2024-03-25T14:53:32;9.25;;;2.45;;
51594;SDS011;37677;53.254;6.594;2024-03-25T14:56:13;9.05;;;2.58;;
51594;SDS011;37677;53.254;6.594;2024-03-25T14:58:41;4.72;;;2.20;;
51594;SDS011;37677;53.254;6.594;2024-03-25T15:01:35;8.95;;;3.00;;
51594;SDS011;37677;53.254;6.594;2024-03-25T15:04:25;7.10;;;2.40;;
51594;SDS011;37677;53.254;6.594;2024-03-25T15:07:17;13.25;;;2.90;;
51594;SDS011;37677;53.254;6.594;2024-03-25T15:09:43;7.65;;;2.13;;
51594;SDS011;37677;53.254;6.594;2024-03-25T15:15:27;8.25;;;2.67;;
51594;SDS011;37677;53.254;6.594;2024-03-25T15:21:16;10.27;;;2.65;;
51594;SDS011;37677;53.254;6.594;2024-03-25T15:23:51;10.15;;;2.90;;
51594;SDS011;37677;53.254;6.594;2024-03-25T15:26:17;10.65;;;2.58;;
51594;SDS011;37677;53.254;6.594;2024-03-25T15:29:03;8.43;;;3.05;;
51594;SDS011;37677;53.254;6.594;2024-03-25T15:31:31;4.82;;;2.33;;
51594;SDS011;37677;53.254;6.594;2024-03-25T15:34:11;8.48;;;2.97;;
51594;SDS011;37677;53.254;6.594;2024-03-25T15:36:45;7.45;;;2.42;;
51594;SDS011;37677;53.254;6.594;2024-03-25T15:39:23;6.40;;;2.03;;
51594;SDS011;37677;53.254;6.594;2024-03-25T15:41:50;5.82;;;2.50;;
51594;SDS011;37677;53.254;6.594;2024-03-25T15:44:19;8.88;;;2.85;;
51594;SDS011;37677;53.254;6.594;2024-03-25T15:46:58;8.82;;;2.80;;